Litchfield, NE (68852)

11:45 AM CDT on July 10, 2014 (GMT -0500)
Central (KNELOUPC2) Elev 2090 ft | 41.28 °N, 98.97 °W | Change Station

Current weather conditions updated 2 minutes ago

Clear
Clear
84.0 °F
Feels Like 88 °F
N
3.7
Wind Variable Wind from East

Today is forecast to be nearly the same temperature as yesterday.

Today
High -- | Low -- °F
--% Chance of Precip.
Yesterday
High -- | Low -- °F
Precip. -- in
6:12 AM 9:10 PM
Waxing Gibbous, 95% visible
Pressure 29.95 in
Visibility 10.0 miles
Clouds Clear
Heat Index 88 °F
Dew Point 70 °F
Humidity 63%
Rainfall 0.00 in
Snow Depth Not available.
UV 8 out of 12
Pollen 2.90 out of 12
Air Quality Not available.
Flu Activity Sporadic
METAR KODX 101553Z AUTO 15010KT 10SM CLR 23/18 A2997 RMK AO2 SLP142 T02330183

More Conditions Fewer Conditions

Pressure 29.95 in
Visibility 10.0 miles
Clouds Clear
Heat Index 88 °F
Dew Point 70 °F
Humidity 63%
Rainfall 0.00 in
Snow Depth Not available.
UV 8 out of 12
Pollen 2.90 out of 12
Air Quality Not available.
Flu Activity Sporadic
METAR KODX 101553Z AUTO 15010KT 10SM CLR 23/18 A2997 RMK AO2 SLP142 T02330183

More Conditions Fewer Conditions

10-Day Weather Forecast

Almanac

Astronomy

Jul. 10, 2014 Rise Set
Actual Time 6:12 AM CDT 9:10 PM CDT
Civil Twilight 5:39 AM CDT 9:43 PM CDT
Nautical Twilight 4:57 AM CDT 10:25 PM CDT
Astronomical Twilight 4:08 AM CDT 11:14 PM CDT
Moon 7:24 PM CDT 4:26 AM CDT
Length of Visible Light 16h 03m
Length of Day
14h 57m
Tomorrow will be 1m 11s shorter.
Waxing Gibbous, 95% of the Moon is Illuminated
Today
Waxing Gibbous
Jul 12
Full
Jul 18
Last Quarter
Jul 26
New
Aug 3
First Quarter

Today's Extremes

State Highs State Lows

Community

WunderPhotos

Upload Photos

1,732,191 photos uploaded!

WunderBlogs® & News

Nearby

Snow Depth

Station Depth Elevation
No new snow has been reported.

Earthquake Activity

City Distance Mag. Time & Date
No recent earthquake activity has been reported nearby.
Minimum magnitude displayed is 2.5.

Coastal Water Temperatures

Place Temperature
No Stations Reporting

Nearby Weather Stations

Station Location Temp. Heat Index Dew Point Humidity Wind Precip. Elev Updated Type
Central, Loup City, NE 84.0 °F 88 °F 70 °F 63% East  at  3.7 mph - / hr 2090 ft 11:43 AM CDT Normal
Ansley, NE 77.7 °F 80 °F 69 °F 74% SSW  at  6.0 mph 0.00 in / hr 2320 ft 11:30 AM CDT Normal

Show More Stations Show Fewer Stations